Time;durP1;ratioP1;P1;durP2;ratioP2;P2;SDS_P1;SDS_P2;PMS_P1;PMS_P2;Temp;Humidity;BMP_temperature;BMP_pressure;BME280_temperature;BME280_humidity;BME280_pressure;Samples;Min_cycle;Max_cycle;Signal;HPM_P1;HPM_P2
2023/04/21 00:02:04;;;;;;;27.47;15.70;;;13.40;62.30;;;;;;5069526;28;20479;-87
2023/04/21 00:04:32;;;;;;;27.60;16.10;;;13.50;62.00;;;;;;5060858;28;20475;-87
2023/04/21 00:07:00;;;;;;;30.53;17.03;;;13.50;61.60;;;;;;5070255;28;20450;-88
2023/04/21 00:09:27;;;;;;;29.57;16.63;;;13.50;61.80;;;;;;5060058;28;20439;-86
2023/04/21 00:11:55;;;;;;;26.83;16.80;;;13.40;62.30;;;;;;5087491;28;20446;-86
2023/04/21 00:14:25;;;;;;;29.23;16.10;;;13.30;62.40;;;;;;5087886;27;20462;-87
2023/04/21 00:16:52;;;;;;;30.80;17.20;;;13.30;62.90;;;;;;5076364;28;20468;-87
2023/04/21 00:19:20;;;;;;;32.03;17.00;;;13.00;64.00;;;;;;5050981;28;20450;-86
2023/04/21 00:21:47;;;;;;;27.13;15.60;;;13.00;64.40;;;;;;5090166;27;20467;-87
2023/04/21 00:24:14;;;;;;;32.57;16.80;;;13.10;64.50;;;;;;5071789;27;20821;-86
2023/04/21 00:26:41;;;;;;;31.43;19.13;;;13.30;63.50;;;;;;5073968;28;20541;-87
2023/04/21 00:29:08;;;;;;;29.17;16.50;;;13.50;63.10;;;;;;5066520;27;20443;-87
2023/04/21 00:31:37;;;;;;;29.70;17.03;;;13.60;62.70;;;;;;5083647;28;20849;-86
2023/04/21 00:34:05;;;;;;;30.40;18.00;;;13.70;62.70;;;;;;5090072;28;20556;-88
2023/04/21 00:36:32;;;;;;;34.03;18.73;;;13.40;62.50;;;;;;5068325;28;20479;-87
2023/04/21 00:38:59;;;;;;;30.47;17.77;;;13.10;63.30;;;;;;5075113;28;20491;-88
2023/04/21 00:41:28;;;;;;;33.33;18.17;;;13.00;64.30;;;;;;5077087;27;20458;-88
2023/04/21 00:44:04;;;;;;;36.10;18.87;;;13.30;63.80;;;;;;5089056;27;20468;-86
2023/04/21 00:46:32;;;;;;;30.47;19.43;;;13.40;63.30;;;;;;5065131;28;20430;-88
2023/04/21 00:49:03;;;;;;;31.53;17.73;;;13.60;62.80;;;;;;5057592;28;20520;-86
2023/04/21 00:51:33;;;;;;;30.37;18.30;;;13.70;62.30;;;;;;5064630;28;20458;-87
2023/04/21 00:54:02;;;;;;;31.67;17.93;;;13.70;61.80;;;;;;5088288;28;20476;-87
2023/04/21 00:56:31;;;;;;;35.07;19.40;;;13.60;62.10;;;;;;5048232;28;20475;-87
2023/04/21 00:59:00;;;;;;;29.50;16.97;;;13.70;62.40;;;;;;5088993;28;20524;-87
2023/04/21 01:01:29;;;;;;;37.20;19.30;;;13.60;62.00;;;;;;5049107;28;20453;-87
2023/04/21 01:03:58;;;;;;;33.67;18.73;;;13.30;63.00;;;;;;5064954;28;20860;-86
2023/04/21 01:06:29;;;;;;;34.90;19.47;;;13.40;63.00;;;;;;5078160;27;20447;-86
2023/04/21 01:08:57;;;;;;;31.97;18.60;;;13.50;63.00;;;;;;5061067;28;20888;-87
2023/04/21 01:11:25;;;;;;;31.37;18.20;;;13.60;63.10;;;;;;5073740;28;20440;-87
2023/04/21 01:13:53;;;;;;;27.60;16.67;;;13.70;63.10;;;;;;5089215;28;20479;-86
2023/04/21 01:16:21;;;;;;;31.47;17.47;;;13.80;62.40;;;;;;5042614;28;20470;-87
2023/04/21 01:18:49;;;;;;;30.60;16.57;;;13.80;61.20;;;;;;5089460;28;20446;-88
2023/04/21 01:21:17;;;;;;;29.90;16.10;;;13.70;60.90;;;;;;5089585;28;20602;-87
2023/04/21 01:23:46;;;;;;;24.40;14.87;;;13.60;61.20;;;;;;5092944;27;20470;-86
2023/04/21 01:26:13;;;;;;;30.80;16.80;;;13.60;61.20;;;;;;5097141;27;20450;-87
2023/04/21 01:28:41;;;;;;;28.00;16.87;;;13.60;61.40;;;;;;5073214;28;20450;-87
2023/04/21 01:31:08;;;;;;;30.07;17.00;;;13.70;61.50;;;;;;5091251;27;20459;-88
2023/04/21 01:33:37;;;;;;;28.60;16.40;;;13.70;61.70;;;;;;5055729;28;20552;-87
2023/04/21 01:36:04;;;;;;;34.33;18.93;;;13.70;61.70;;;;;;5108852;27;20503;-87
2023/04/21 01:38:32;;;;;;;29.07;16.93;;;13.70;61.80;;;;;;5104270;27;20444;-87
2023/04/21 01:41:00;;;;;;;32.80;16.83;;;13.80;62.10;;;;;;5071151;28;20967;-87
2023/04/21 01:43:28;;;;;;;30.73;16.60;;;13.80;61.40;;;;;;5089186;28;20511;-87
2023/04/21 01:45:56;;;;;;;29.37;16.87;;;13.60;60.90;;;;;;5042025;28;20561;-87
2023/04/21 01:48:23;;;;;;;27.53;15.50;;;13.40;62.40;;;;;;5072194;28;20562;-87
2023/04/21 01:50:50;;;;;;;31.30;16.77;;;13.40;62.50;;;;;;5074099;28;20536;-86
2023/04/21 01:53:17;;;;;;;30.10;16.30;;;13.50;62.30;;;;;;5049559;27;20486;-87
2023/04/21 01:55:44;;;;;;;35.53;18.80;;;13.40;61.90;;;;;;5040948;28;20444;-87
2023/04/21 01:58:13;;;;;;;35.43;18.67;;;13.10;63.50;;;;;;5073746;28;20470;-87
2023/04/21 02:00:40;;;;;;;28.20;17.80;;;13.20;63.50;;;;;;5087422;28;20960;-86
2023/04/21 02:03:07;;;;;;;34.73;17.40;;;13.50;63.20;;;;;;5089831;28;20470;-88
2023/04/21 02:05:34;;;;;;;27.10;16.67;;;13.60;62.90;;;;;;5088930;27;20482;-86
2023/04/21 02:08:01;;;;;;;30.20;17.43;;;13.70;62.70;;;;;;5065707;28;20451;-88
2023/04/21 02:10:28;;;;;;;29.40;17.20;;;13.80;62.50;;;;;;5074534;28;20455;-86
2023/04/21 02:12:55;;;;;;;33.87;17.73;;;13.80;62.10;;;;;;5058293;28;20536;-87
2023/04/21 02:15:24;;;;;;;36.50;18.50;;;13.80;61.60;;;;;;5039835;28;20493;-87
2023/04/21 02:17:51;;;;;;;31.50;19.50;;;13.70;61.70;;;;;;5054390;28;20470;-86
2023/04/21 02:20:18;;;;;;;32.20;17.53;;;13.80;62.10;;;;;;5058709;28;20443;-88
2023/04/21 02:22:46;;;;;;;33.43;17.10;;;13.90;62.20;;;;;;5071041;28;20478;-87
2023/04/21 02:25:14;;;;;;;35.20;17.07;;;13.90;61.90;;;;;;5079617;28;20440;-86
2023/04/21 02:27:41;;;;;;;28.60;16.20;;;13.90;61.50;;;;;;5063470;28;20459;-86
2023/04/21 02:30:09;;;;;;;27.87;14.83;;;14.00;61.70;;;;;;5066537;28;20456;-86
2023/04/21 02:32:38;;;;;;;29.20;17.33;;;14.00;61.60;;;;;;5063317;28;20487;-87
2023/04/21 02:35:06;;;;;;;27.77;16.63;;;13.90;61.60;;;;;;5072327;28;20548;-87
2023/04/21 02:37:33;;;;;;;27.67;15.57;;;13.90;61.50;;;;;;5055544;28;20490;-86
2023/04/21 02:40:00;;;;;;;32.00;17.07;;;14.00;61.90;;;;;;5075981;28;21257;-88
2023/04/21 02:42:27;;;;;;;34.00;18.03;;;14.00;61.90;;;;;;5049729;28;20831;-86
2023/04/21 02:44:54;;;;;;;23.07;15.73;;;14.00;62.60;;;;;;5089178;28;20468;-87
2023/04/21 02:47:21;;;;;;;27.93;16.27;;;14.00;61.80;;;;;;5070549;28;20860;-87
2023/04/21 02:49:50;;;;;;;32.30;17.27;;;14.00;61.80;;;;;;5060658;28;20451;-88
2023/04/21 02:52:17;;;;;;;33.87;17.60;;;14.00;61.70;;;;;;5038670;28;20446;-87
2023/04/21 02:54:44;;;;;;;30.07;17.70;;;13.90;61.70;;;;;;5041514;28;20444;-86
2023/04/21 02:57:11;;;;;;;31.33;17.23;;;13.80;62.00;;;;;;5047165;28;20490;-87
2023/04/21 02:59:40;;;;;;;33.97;16.60;;;13.90;62.10;;;;;;5080275;28;20444;-87
2023/04/21 03:02:07;;;;;;;29.00;18.63;;;13.90;61.80;;;;;;5064577;28;20428;-86
2023/04/21 03:04:38;;;;;;;30.40;18.47;;;13.90;61.20;;;;;;5087257;28;20542;-88
2023/04/21 03:07:11;;;;;;;34.53;18.83;;;13.90;61.30;;;;;;5061338;28;20574;-86
2023/04/21 03:09:39;;;;;;;31.63;17.60;;;13.90;61.60;;;;;;5047144;28;20976;-87
2023/04/21 03:12:06;;;;;;;32.03;16.53;;;13.80;61.90;;;;;;5055678;28;20692;-87
2023/04/21 03:14:36;;;;;;;32.63;17.60;;;13.80;62.40;;;;;;5090614;28;20470;-87
2023/04/21 03:17:03;;;;;;;32.40;17.30;;;13.80;62.50;;;;;;5078082;28;20455;-86
2023/04/21 03:19:32;;;;;;;30.63;17.80;;;13.90;62.60;;;;;;5060135;28;20475;-87
2023/04/21 03:21:59;;;;;;;30.17;15.83;;;13.90;62.40;;;;;;5073761;28;20443;-86
2023/04/21 03:24:28;;;;;;;33.17;18.43;;;14.00;62.40;;;;;;5080517;28;20470;-86
2023/04/21 03:26:56;;;;;;;30.37;17.10;;;14.00;61.90;;;;;;5059317;28;20432;-86
2023/04/21 03:29:24;;;;;;;32.40;18.70;;;13.90;61.90;;;;;;5067032;28;20463;-87
2023/04/21 03:31:51;;;;;;;31.47;17.40;;;13.90;62.40;;;;;;5059115;28;20456;-87
2023/04/21 03:34:18;;;;;;;33.50;19.60;;;13.80;62.70;;;;;;5088627;28;21076;-87
2023/04/21 03:36:45;;;;;;;34.03;18.60;;;13.80;63.00;;;;;;5044460;28;20499;-86
2023/04/21 03:39:12;;;;;;;36.30;18.97;;;13.80;62.70;;;;;;5058817;28;20451;-86
2023/04/21 03:41:40;;;;;;;37.33;18.43;;;13.70;62.50;;;;;;5057579;28;20438;-86
2023/04/21 03:44:07;;;;;;;37.37;19.50;;;13.80;62.70;;;;;;5067672;28;20475;-87
2023/04/21 03:46:34;;;;;;;41.10;19.93;;;13.90;62.90;;;;;;5058994;28;20543;-87
2023/04/21 03:49:02;;;;;;;37.50;19.50;;;13.80;63.10;;;;;;5094884;28;20454;-87
2023/04/21 03:51:31;;;;;;;39.80;20.00;;;13.80;63.30;;;;;;5096505;28;20505;-86
2023/04/21 03:53:58;;;;;;;37.13;20.27;;;13.80;63.60;;;;;;5094752;28;20490;-86
2023/04/21 03:56:25;;;;;;;36.90;19.40;;;13.90;63.10;;;;;;5046516;28;21084;-86
2023/04/21 03:58:54;;;;;;;38.23;20.00;;;13.80;63.20;;;;;;5093318;28;20494;-86
2023/04/21 04:01:21;;;;;;;39.17;20.80;;;13.70;63.60;;;;;;5070843;28;20515;-86
2023/04/21 04:03:48;;;;;;;41.43;20.23;;;13.70;63.40;;;;;;5054730;28;20554;-87
2023/04/21 04:06:15;;;;;;;45.80;20.53;;;13.80;63.00;;;;;;5091729;27;20454;-87
2023/04/21 04:08:42;;;;;;;33.43;19.87;;;13.90;62.70;;;;;;5080715;27;20450;-87
2023/04/21 04:11:10;;;;;;;40.40;21.90;;;13.90;62.60;;;;;;5104339;27;20475;-87
2023/04/21 04:13:37;;;;;;;43.00;21.40;;;14.00;62.40;;;;;;5076682;28;20538;-87
2023/04/21 04:16:06;;;;;;;43.03;20.57;;;13.90;61.70;;;;;;5045701;28;21092;-87
2023/04/21 04:18:33;;;;;;;35.83;19.60;;;13.90;62.00;;;;;;5103170;27;20500;-87
2023/04/21 04:21:06;;;;;;;33.30;19.40;;;13.90;62.50;;;;;;5097368;28;20446;-87
2023/04/21 04:23:33;;;;;;;39.30;22.43;;;13.90;62.60;;;;;;5092283;28;20493;-88
2023/04/21 04:26:00;;;;;;;38.50;20.93;;;14.00;62.50;;;;;;5087417;28;20461;-87
2023/04/21 04:28:27;;;;;;;43.70;22.67;;;14.00;62.40;;;;;;5075154;28;20452;-86
2023/04/21 04:30:55;;;;;;;38.53;19.43;;;13.90;62.60;;;;;;5079554;28;20475;-88
2023/04/21 04:33:23;;;;;;;39.30;21.10;;;13.90;62.60;;;;;;5063485;27;20460;-87
2023/04/21 04:35:51;;;;;;;40.00;20.50;;;14.00;62.50;;;;;;5063416;27;21059;-87
2023/04/21 04:38:18;;;;;;;35.57;21.00;;;13.90;62.70;;;;;;5077232;28;20467;-86
2023/04/21 04:40:45;;;;;;;41.73;21.43;;;13.80;63.20;;;;;;5055444;28;20970;-86
2023/04/21 04:43:12;;;;;;;38.13;20.60;;;13.70;63.60;;;;;;5049261;28;20475;-88
2023/04/21 04:45:39;;;;;;;37.43;21.00;;;13.70;63.80;;;;;;5050553;28;20447;-89
2023/04/21 04:48:07;;;;;;;40.90;22.73;;;13.90;63.40;;;;;;5085703;28;20456;-88
2023/04/21 04:50:35;;;;;;;45.43;22.13;;;13.90;63.20;;;;;;5080219;28;21050;-87
2023/04/21 04:53:02;;;;;;;41.20;22.60;;;13.70;63.40;;;;;;5093010;27;20478;-87
2023/04/21 04:55:29;;;;;;;38.97;20.67;;;13.70;63.60;;;;;;5076696;28;20467;-87
2023/04/21 04:57:56;;;;;;;42.80;20.13;;;13.60;63.80;;;;;;5076550;28;20463;-87
2023/04/21 05:00:24;;;;;;;43.73;20.83;;;13.60;63.40;;;;;;5053027;27;20443;-87
2023/04/21 05:02:51;;;;;;;38.87;20.30;;;13.70;63.30;;;;;;5069782;28;20524;-86
2023/04/21 05:05:18;;;;;;;40.27;19.77;;;13.80;63.40;;;;;;5051408;28;20543;-86
2023/04/21 05:07:47;;;;;;;45.37;20.70;;;13.60;63.90;;;;;;5052901;28;20439;-86
2023/04/21 05:10:14;;;;;;;40.30;20.80;;;13.60;64.30;;;;;;5087467;28;20454;-87
2023/04/21 05:12:41;;;;;;;43.83;22.40;;;13.50;65.00;;;;;;5082650;28;20484;-86
2023/04/21 05:15:09;;;;;;;41.33;21.40;;;13.60;64.40;;;;;;5067386;28;20442;-86
2023/04/21 05:17:36;;;;;;;43.90;21.63;;;13.70;64.30;;;;;;5059496;27;21123;-87
2023/04/21 05:20:04;;;;;;;47.07;21.60;;;13.80;64.00;;;;;;5094001;28;20881;-87
2023/04/21 05:22:31;;;;;;;43.80;22.23;;;13.90;63.40;;;;;;5102404;28;20448;-86
2023/04/21 05:25:00;;;;;;;42.40;23.07;;;14.00;63.20;;;;;;5061632;28;20447;-87
2023/04/21 05:27:27;;;;;;;40.70;21.10;;;14.10;62.80;;;;;;5072971;28;20546;-86
2023/04/21 05:29:54;;;;;;;36.20;21.13;;;14.10;63.00;;;;;;5063825;28;20832;-87
2023/04/21 05:32:21;;;;;;;45.47;22.50;;;14.10;62.80;;;;;;5093017;27;20517;-86
2023/04/21 05:34:48;;;;;;;40.00;20.00;;;14.10;63.30;;;;;;5052882;28;20447;-87
2023/04/21 05:37:15;;;;;;;36.40;21.50;;;14.10;63.00;;;;;;5076686;28;20570;-86
2023/04/21 05:39:42;;;;;;;38.80;19.63;;;14.20;63.10;;;;;;5051357;28;21141;-86
2023/04/21 05:42:11;;;;;;;37.20;19.90;;;14.10;62.80;;;;;;5085769;28;20554;-87
2023/04/21 05:44:38;;;;;;;36.30;18.70;;;14.10;62.90;;;;;;5109040;27;21034;-86
2023/04/21 05:47:06;;;;;;;37.03;19.47;;;14.20;62.90;;;;;;5093970;27;20995;-87
2023/04/21 05:49:33;;;;;;;37.23;20.47;;;14.20;62.80;;;;;;5061344;27;20436;-87
2023/04/21 05:52:00;;;;;;;42.43;21.80;;;14.20;63.00;;;;;;5076468;28;20440;-87
2023/04/21 05:54:27;;;;;;;37.50;20.87;;;14.20;63.10;;;;;;5088730;27;20544;-87
2023/04/21 05:56:55;;;;;;;38.90;19.77;;;14.30;62.90;;;;;;5061600;28;20488;-87
2023/04/21 05:59:25;;;;;;;43.70;21.40;;;14.30;62.60;;;;;;5076170;28;21213;-87
2023/04/21 06:01:52;;;;;;;38.27;20.33;;;14.20;62.90;;;;;;5109606;27;20554;-86
2023/04/21 06:04:19;;;;;;;41.07;21.07;;;14.20;63.00;;;;;;5096382;28;20554;-87
2023/04/21 06:06:46;;;;;;;40.53;20.37;;;14.10;62.60;;;;;;5078204;28;20475;-86
2023/04/21 06:09:14;;;;;;;39.47;21.20;;;14.10;62.80;;;;;;5094698;27;20455;-87
2023/04/21 06:11:41;;;;;;;38.07;20.10;;;14.00;63.10;;;;;;5093457;28;20537;-88
2023/04/21 06:14:08;;;;;;;34.77;19.93;;;14.10;63.30;;;;;;5091024;28;20472;-88
2023/04/21 06:16:37;;;;;;;41.17;19.77;;;14.10;63.40;;;;;;5073518;27;20483;-89
2023/04/21 06:19:04;;;;;;;39.83;20.87;;;14.30;63.50;;;;;;5060679;28;20470;-86
2023/04/21 06:21:31;;;;;;;38.63;19.47;;;14.30;63.20;;;;;;5070986;28;20686;-86
2023/04/21 06:23:58;;;;;;;36.33;19.67;;;14.40;63.20;;;;;;5070974;28;20507;-86
2023/04/21 06:26:25;;;;;;;38.90;21.40;;;14.50;63.20;;;;;;5065181;28;21009;-87
2023/04/21 06:28:52;;;;;;;36.50;19.60;;;14.60;63.00;;;;;;5086879;27;20855;-87
2023/04/21 06:31:19;;;;;;;38.10;21.00;;;14.50;62.70;;;;;;5059390;28;20803;-86
2023/04/21 06:33:48;;;;;;;35.07;19.87;;;14.40;63.10;;;;;;5070112;28;20463;-87
2023/04/21 06:36:15;;;;;;;35.87;19.97;;;14.30;63.80;;;;;;5106929;27;20597;-86
2023/04/21 06:38:42;;;;;;;39.67;19.50;;;14.10;64.60;;;;;;5086572;28;21085;-87
2023/04/21 06:41:09;;;;;;;39.07;22.43;;;13.90;65.70;;;;;;5088729;27;20541;-87
2023/04/21 06:43:36;;;;;;;43.20;19.97;;;14.00;66.40;;;;;;5088340;28;20496;-87
2023/04/21 06:46:03;;;;;;;37.97;20.30;;;14.20;65.60;;;;;;5090139;28;20455;-86
2023/04/21 06:48:31;;;;;;;40.00;20.13;;;14.10;66.20;;;;;;5070060;28;20447;-87
2023/04/21 06:51:01;;;;;;;37.30;19.80;;;14.00;65.90;;;;;;5069344;28;20632;-88
2023/04/21 06:53:28;;;;;;;39.07;20.40;;;14.20;65.50;;;;;;5087051;27;20452;-87
2023/04/21 06:55:55;;;;;;;33.67;19.77;;;14.00;65.00;;;;;;5104091;27;20455;-87
2023/04/21 06:58:22;;;;;;;32.50;19.03;;;14.00;65.70;;;;;;5078492;28;20511;-86
2023/04/21 07:00:50;;;;;;;34.67;19.63;;;14.10;66.10;;;;;;5044708;28;20456;-87
2023/04/21 07:03:17;;;;;;;44.97;22.37;;;14.10;66.10;;;;;;5103787;27;20475;-87
2023/04/21 07:05:44;;;;;;;39.10;19.83;;;14.10;67.00;;;;;;5085876;28;20467;-85
2023/04/21 07:08:13;;;;;;;38.77;21.47;;;14.30;66.30;;;;;;5089667;28;20540;-86
2023/04/21 07:10:40;;;;;;;34.63;19.57;;;14.70;65.90;;;;;;5057005;28;20482;-87
2023/04/21 07:13:07;;;;;;;38.67;20.77;;;14.90;65.20;;;;;;5068602;28;20510;-87
2023/04/21 07:15:34;;;;;;;34.20;20.43;;;15.20;64.60;;;;;;5087810;28;20436;-88
2023/04/21 07:18:01;;;;;;;33.10;18.53;;;15.00;64.00;;;;;;5045355;28;20488;-87
2023/04/21 07:20:28;;;;;;;32.33;20.37;;;15.10;64.20;;;;;;5085330;28;20443;-87
2023/04/21 07:22:55;;;;;;;37.07;19.40;;;15.10;62.70;;;;;;5069890;28;20464;-88
2023/04/21 07:25:24;;;;;;;32.87;19.23;;;15.40;63.40;;;;;;5072363;28;20475;-87
2023/04/21 07:27:51;;;;;;;30.70;18.87;;;15.20;63.90;;;;;;5080114;28;20439;-88
2023/04/21 07:30:18;;;;;;;36.93;19.93;;;15.20;63.60;;;;;;5089328;27;20915;-87
2023/04/21 07:32:45;;;;;;;35.57;19.40;;;15.30;62.80;;;;;;5074003;28;20883;-87
2023/04/21 07:35:12;;;;;;;34.83;18.47;;;15.50;63.00;;;;;;5043782;28;21103;-88
2023/04/21 07:37:40;;;;;;;31.07;18.60;;;15.60;62.20;;;;;;5090278;28;20490;-88
2023/04/21 07:40:08;;;;;;;27.30;16.77;;;15.50;62.30;;;;;;5088045;28;20948;-88
2023/04/21 07:42:36;;;;;;;33.80;19.80;;;15.30;62.20;;;;;;5073731;28;21167;-88
2023/04/21 07:45:04;;;;;;;29.37;17.90;;;15.20;64.60;;;;;;5078765;28;20455;-88
2023/04/21 07:47:32;;;;;;;34.10;19.40;;;15.20;64.90;;;;;;5046696;28;20444;-89
2023/04/21 07:49:59;;;;;;;28.87;17.83;;;15.50;64.20;;;;;;5073235;28;20439;-88
2023/04/21 07:52:26;;;;;;;31.90;18.13;;;15.70;63.50;;;;;;5098522;27;20451;-88
2023/04/21 07:54:53;;;;;;;33.33;19.03;;;15.60;63.00;;;;;;5089171;28;20448;-88
2023/04/21 07:57:20;;;;;;;34.23;20.93;;;15.50;62.60;;;;;;5106877;27;20509;-89
2023/04/21 07:59:49;;;;;;;34.90;19.97;;;15.40;63.30;;;;;;5070728;28;21063;-88
2023/04/21 08:02:16;;;;;;;31.80;19.00;;;15.50;63.50;;;;;;5060910;28;20542;-89
2023/04/21 08:04:43;;;;;;;29.73;17.73;;;15.80;62.60;;;;;;5086405;27;20475;-89
2023/04/21 08:07:12;;;;;;;28.40;18.27;;;15.90;61.80;;;;;;5081245;28;21017;-88
2023/04/21 08:09:39;;;;;;;28.90;19.30;;;15.70;62.30;;;;;;5047394;28;20440;-87
2023/04/21 08:12:06;;;;;;;30.57;18.00;;;15.80;62.30;;;;;;5088670;28;20455;-87
2023/04/21 08:14:33;;;;;;;35.13;19.33;;;15.80;62.00;;;;;;5070016;28;21121;-88
2023/04/21 08:17:02;;;;;;;36.27;19.87;;;15.80;62.00;;;;;;5088487;28;20458;-88
2023/04/21 08:19:29;;;;;;;31.40;19.10;;;15.90;62.20;;;;;;5078003;28;20460;-88
2023/04/21 08:21:56;;;;;;;35.30;20.60;;;15.90;62.80;;;;;;5075346;28;20451;-88
2023/04/21 08:24:23;;;;;;;31.07;19.33;;;15.80;63.00;;;;;;5087404;28;20455;-87
2023/04/21 08:26:50;;;;;;;30.47;19.30;;;15.70;63.50;;;;;;5080716;28;20479;-88
2023/04/21 08:29:17;;;;;;;36.60;20.30;;;15.60;63.60;;;;;;5046385;28;20463;-89
2023/04/21 08:31:45;;;;;;;33.10;18.90;;;15.70;63.50;;;;;;5046172;28;20533;-89
2023/04/21 08:34:13;;;;;;;37.73;18.17;;;15.80;62.80;;;;;;5057047;28;20543;-88
2023/04/21 08:36:41;;;;;;;32.03;18.53;;;15.90;62.70;;;;;;5071413;27;20535;-88
2023/04/21 08:39:09;;;;;;;30.43;18.70;;;15.90;63.30;;;;;;5090009;28;22961;-89
2023/04/21 08:41:40;;;;;;;33.90;21.67;;;15.80;63.60;;;;;;5040450;28;20468;-89
2023/04/21 08:44:07;;;;;;;37.27;18.60;;;15.90;63.30;;;;;;5078773;28;21000;-88
2023/04/21 08:46:35;;;;;;;33.30;20.30;;;16.10;63.50;;;;;;5068803;28;20740;-88
2023/04/21 08:49:02;;;;;;;32.67;20.97;;;16.20;63.10;;;;;;5060093;28;20501;-88
2023/04/21 08:51:31;;;;;;;35.10;19.10;;;16.20;62.70;;;;;;5073653;28;20551;-88
2023/04/21 08:53:58;;;;;;;31.03;18.50;;;16.20;62.80;;;;;;5087622;28;20540;-88
2023/04/21 08:56:26;;;;;;;29.67;17.50;;;16.30;62.50;;;;;;5081675;28;20457;-88
2023/04/21 08:58:53;;;;;;;32.20;18.77;;;16.10;60.00;;;;;;5104116;27;21079;-88
2023/04/21 09:01:20;;;;;;;33.50;18.67;;;15.70;61.50;;;;;;5065507;28;20451;-89
2023/04/21 09:03:47;;;;;;;31.17;19.30;;;15.50;62.30;;;;;;5059330;28;20906;-89
2023/04/21 09:06:14;;;;;;;32.73;19.50;;;15.50;63.30;;;;;;5042369;28;20447;-88
2023/04/21 09:08:44;;;;;;;25.10;17.67;;;15.60;64.40;;;;;;5064491;28;20452;-88
2023/04/21 09:11:14;;;;;;;31.00;18.80;;;15.80;63.60;;;;;;5086772;28;20458;-89
2023/04/21 09:13:43;;;;;;;27.10;18.00;;;15.90;60.80;;;;;;5042155;28;20483;-88
2023/04/21 09:16:16;;;;;;;24.07;16.33;;;16.00;61.30;;;;;;5055889;28;20492;-88
2023/04/21 09:18:44;;;;;;;28.50;18.63;;;16.10;61.50;;;;;;5070817;27;20658;-89
2023/04/21 09:21:13;;;;;;;26.07;16.43;;;16.20;62.00;;;;;;5087231;28;20462;-88
2023/04/21 09:23:47;;;;;;;30.40;17.37;;;16.10;62.50;;;;;;5074868;27;20557;-89
2023/04/21 09:26:14;;;;;;;28.30;19.03;;;16.10;61.70;;;;;;5087948;27;20807;-90
2023/04/21 09:28:42;;;;;;;30.77;18.60;;;16.00;62.60;;;;;;5071217;28;20501;-89
2023/04/21 09:31:15;;;;;;;26.93;15.70;;;16.10;61.70;;;;;;5052929;28;20443;-89
2023/04/21 09:33:47;;;;;;;23.80;16.50;;;16.30;61.50;;;;;;5054313;27;20546;-89
2023/04/21 09:36:21;;;;;;;25.50;17.77;;;16.40;60.60;;;;;;5091761;28;20478;-90
2023/04/21 09:38:56;;;;;;;27.83;18.20;;;16.40;61.10;;;;;;5057431;28;20680;-89
2023/04/21 09:41:23;;;;;;;28.83;18.43;;;16.30;61.30;;;;;;5082495;28;20453;-88
2023/04/21 09:43:51;;;;;;;29.27;18.40;;;16.40;60.60;;;;;;5069326;27;20629;-88
2023/04/21 09:46:19;;;;;;;90.67;65.97;;;16.50;60.30;;;;;;5090824;28;20495;-88
2023/04/21 09:48:47;;;;;;;37.93;29.50;;;16.60;59.40;;;;;;5076177;27;20459;-89
2023/04/21 09:51:16;;;;;;;29.60;19.50;;;16.70;60.00;;;;;;5066667;28;20484;-89
2023/04/21 09:53:45;;;;;;;30.30;18.00;;;16.90;59.80;;;;;;5081736;28;20471;-89
2023/04/21 09:56:15;;;;;;;25.17;17.17;;;17.00;59.40;;;;;;5060941;28;20455;-89
2023/04/21 09:58:47;;;;;;;26.30;18.37;;;17.20;59.30;;;;;;5062775;28;20860;-88
2023/04/21 10:01:15;;;;;;;28.57;18.77;;;17.30;58.90;;;;;;5043963;28;20465;-91
2023/04/21 10:03:44;;;;;;;26.73;18.10;;;17.00;58.90;;;;;;5087714;27;20622;-88
2023/04/21 10:06:12;;;;;;;25.10;16.53;;;16.90;58.50;;;;;;5054069;28;20451;-89
2023/04/21 10:08:40;;;;;;;29.03;17.37;;;16.80;58.80;;;;;;5071573;28;20554;-88
2023/04/21 10:11:08;;;;;;;29.80;17.77;;;16.80;58.80;;;;;;5086077;28;20438;-88
2023/04/21 10:13:37;;;;;;;29.37;19.57;;;17.00;59.30;;;;;;5087247;27;20506;-88
2023/04/21 10:16:06;;;;;;;25.10;17.90;;;16.60;58.40;;;;;;5073124;28;20491;-87
2023/04/21 10:18:37;;;;;;;29.50;19.30;;;16.70;58.90;;;;;;5103237;27;20444;-87
2023/04/21 10:21:07;;;;;;;26.50;18.27;;;16.80;58.80;;;;;;5048278;28;20945;-89
2023/04/21 10:23:39;;;;;;;25.80;16.13;;;17.10;59.20;;;;;;5091757;28;20456;-88
2023/04/21 10:26:12;;;;;;;24.53;17.20;;;17.40;58.30;;;;;;5071734;28;20439;-88
2023/04/21 10:28:52;;;;;;;24.70;16.47;;;17.60;58.00;;;;;;5069619;28;20874;-88
2023/04/21 10:31:21;;;;;;;26.63;16.33;;;17.90;58.30;;;;;;5089975;28;20443;-87
2023/04/21 10:34:12;;;;;;;25.87;15.87;;;18.10;56.60;;;;;;5079917;28;20460;-88
2023/04/21 10:36:43;;;;;;;24.50;15.67;;;18.30;57.70;;;;;;5065714;27;21166;-89
2023/04/21 10:39:13;;;;;;;23.20;15.57;;;18.40;56.20;;;;;;5097266;28;20471;-88
2023/04/21 10:41:45;;;;;;;22.73;15.70;;;18.80;55.10;;;;;;5088373;28;21027;-87
2023/04/21 10:44:15;;;;;;;23.97;15.27;;;18.50;55.10;;;;;;5103690;27;21085;-89
2023/04/21 10:46:47;;;;;;;23.50;15.40;;;18.30;54.70;;;;;;5075520;28;20448;-87
2023/04/21 10:49:24;;;;;;;22.83;15.53;;;18.10;54.90;;;;;;5047712;28;20498;-86
2023/04/21 10:52:08;;;;;;;25.20;16.50;;;17.40;58.00;;;;;;5091051;27;20906;-87
2023/04/21 10:54:44;;;;;;;20.33;14.67;;;17.50;57.80;;;;;;5070761;28;20851;-87
2023/04/21 10:57:12;;;;;;;24.90;14.63;;;17.50;57.50;;;;;;5074282;28;20952;-87
2023/04/21 10:59:41;;;;;;;22.90;14.77;;;17.90;57.30;;;;;;5081305;28;20491;-87
2023/04/21 11:02:10;;;;;;;21.00;15.57;;;18.10;56.40;;;;;;5064270;28;20436;-89
2023/04/21 11:04:39;;;;;;;21.53;14.70;;;18.40;55.90;;;;;;5087829;28;20475;-88
2023/04/21 11:07:07;;;;;;;21.57;14.53;;;18.10;55.00;;;;;;5089794;28;20451;-87
2023/04/21 11:09:34;;;;;;;21.80;14.07;;;18.10;56.80;;;;;;5090640;28;20439;-89
2023/04/21 11:12:03;;;;;;;22.87;15.23;;;18.20;55.70;;;;;;5097495;28;20497;-88
2023/04/21 11:14:31;;;;;;;24.73;15.27;;;18.20;55.10;;;;;;5064760;28;20574;-89
2023/04/21 11:16:59;;;;;;;22.10;13.70;;;18.40;55.40;;;;;;5068988;28;20454;-88
2023/04/21 11:19:26;;;;;;;24.07;16.27;;;18.80;54.60;;;;;;5064695;28;20499;-87
2023/04/21 11:21:54;;;;;;;19.20;13.67;;;18.90;55.80;;;;;;5090631;28;20538;-87
2023/04/21 11:24:21;;;;;;;18.77;13.27;;;19.20;54.90;;;;;;5090567;28;20468;-87
2023/04/21 11:26:49;;;;;;;20.33;14.13;;;19.20;53.50;;;;;;5072444;28;20503;-86
2023/04/21 11:29:16;;;;;;;20.03;14.10;;;19.20;54.70;;;;;;5042700;28;20446;-87
2023/04/21 11:31:46;;;;;;;21.83;13.97;;;19.50;54.30;;;;;;5079883;28;20458;-86
2023/04/21 11:34:16;;;;;;;25.40;15.03;;;19.60;53.40;;;;;;5092156;28;20481;-87
2023/04/21 11:36:47;;;;;;;17.63;13.03;;;19.70;52.60;;;;;;5072421;28;20538;-86
2023/04/21 11:39:16;;;;;;;16.67;13.00;;;19.80;53.10;;;;;;5092494;28;22180;-87
2023/04/21 11:41:44;;;;;;;57.97;30.30;;;20.10;54.70;;;;;;5093773;28;20594;-87
2023/04/21 11:44:13;;;;;;;21.53;14.97;;;20.20;50.50;;;;;;5107432;27;20524;-87
2023/04/21 11:46:45;;;;;;;19.23;13.77;;;19.40;53.40;;;;;;5066370;28;20451;-88
2023/04/21 11:49:15;;;;;;;18.53;13.07;;;19.60;53.40;;;;;;5106748;27;20490;-86
2023/04/21 11:51:45;;;;;;;17.17;11.73;;;20.00;52.90;;;;;;5076889;28;20479;-87
2023/04/21 11:54:13;;;;;;;19.07;13.00;;;20.50;51.80;;;;;;5083263;28;20478;-88
2023/04/21 11:56:42;;;;;;;18.17;12.63;;;20.70;51.00;;;;;;5059840;28;20501;-88
2023/04/21 11:59:10;;;;;;;18.60;12.87;;;20.50;51.90;;;;;;5072713;28;20984;-87
2023/04/21 12:01:43;;;;;;;17.43;12.40;;;20.20;50.40;;;;;;5067987;28;20543;-86
2023/04/21 12:04:16;;;;;;;16.10;13.43;;;20.40;52.60;;;;;;5091188;28;20479;-87
2023/04/21 12:06:44;;;;;;;18.40;13.47;;;20.70;52.50;;;;;;5092570;28;20446;-85
2023/04/21 12:09:17;;;;;;;15.67;12.10;;;20.80;51.80;;;;;;5059800;28;20865;-86
2023/04/21 12:11:48;;;;;;;19.20;13.97;;;20.70;51.30;;;;;;5081460;28;20513;-87
2023/04/21 12:14:16;;;;;;;20.93;14.13;;;20.40;53.00;;;;;;5074107;28;20478;-87
2023/04/21 12:16:44;;;;;;;21.57;13.87;;;20.70;53.40;;;;;;5074414;28;20446;-87
2023/04/21 12:19:11;;;;;;;17.70;13.60;;;20.90;51.20;;;;;;5091960;27;20864;-89
2023/04/21 12:21:39;;;;;;;18.07;12.53;;;20.90;50.80;;;;;;5072341;28;20514;-89
2023/04/21 12:24:06;;;;;;;18.07;12.00;;;20.90;50.70;;;;;;5080943;28;21109;-88
2023/04/21 12:26:33;;;;;;;15.37;13.27;;;20.80;50.90;;;;;;5093435;27;20901;-87
2023/04/21 12:29:01;;;;;;;23.40;12.73;;;20.80;50.40;;;;;;5092530;28;20483;-87
2023/04/21 12:31:28;;;;;;;16.93;11.70;;;21.00;50.30;;;;;;5076888;28;20439;-85
2023/04/21 12:33:56;;;;;;;21.43;12.73;;;21.30;50.20;;;;;;5079976;28;20510;-89